Time;durP1;ratioP1;P1;durP2;ratioP2;P2;SDS_P1;SDS_P2;PMS_P1;PMS_P2;Temp;Humidity;BMP_temperature;BMP_pressure;BME280_temperature;BME280_humidity;BME280_pressure;Samples;Min_cycle;Max_cycle;Signal;HPM_P1;HPM_P2
2023/02/22 00:01:41;;;;;;;30.27;22.67;;;;;;;7.80;100.00;101450.88;5223183;28;20034;-74
2023/02/22 00:04:14;;;;;;;29.98;23.95;;;;;;;7.77;100.00;101458.06;5226962;28;20026;-74
2023/02/22 00:06:46;;;;;;;30.13;22.85;;;;;;;7.71;100.00;101451.44;5224066;28;20030;-74
2023/02/22 00:09:20;;;;;;;32.67;23.70;;;;;;;7.72;100.00;101453.13;5231275;28;20485;-74
2023/02/22 00:11:51;;;;;;;34.50;24.40;;;;;;;7.75;100.00;101450.31;5223223;28;20033;-74
2023/02/22 00:14:26;;;;;;;33.75;24.75;;;;;;;7.77;100.00;101450.25;5223996;28;20034;-74
2023/02/22 00:16:58;;;;;;;32.15;23.95;;;;;;;7.75;100.00;101439.06;5224386;28;20083;-74
2023/02/22 00:19:29;;;;;;;33.33;23.80;;;;;;;7.69;100.00;101437.69;5226493;28;20037;-74
2023/02/22 00:22:00;;;;;;;31.77;23.63;;;;;;;7.70;100.00;101452.38;5225244;28;20092;-74
2023/02/22 00:24:32;;;;;;;31.52;23.90;;;;;;;7.72;100.00;101442.69;5216804;28;20688;-74
2023/02/22 00:27:03;;;;;;;31.27;23.45;;;;;;;7.73;100.00;101441.78;5223383;28;20376;-74
2023/02/22 00:29:35;;;;;;;34.20;25.10;;;;;;;7.66;100.00;101439.66;5220029;28;20025;-74
2023/02/22 00:32:06;;;;;;;34.15;25.45;;;;;;;7.64;100.00;101439.72;5221478;28;20032;-74
2023/02/22 00:34:37;;;;;;;34.15;25.58;;;;;;;7.68;100.00;101430.78;5223658;28;20027;-74
2023/02/22 00:37:10;;;;;;;35.05;24.38;;;;;;;7.71;100.00;101435.81;5224419;28;20028;-74
2023/02/22 00:39:41;;;;;;;35.73;25.90;;;;;;;7.72;100.00;101436.63;5221862;28;20047;-74
2023/02/22 00:42:13;;;;;;;35.30;25.70;;;;;;;7.71;100.00;101434.97;5218656;28;20049;-74
2023/02/22 00:44:44;;;;;;;38.17;25.70;;;;;;;7.71;100.00;101438.41;5224321;28;20095;-74
2023/02/22 00:47:15;;;;;;;39.03;27.27;;;;;;;7.73;100.00;101433.13;5224199;28;20486;-74
2023/02/22 00:49:47;;;;;;;36.08;25.50;;;;;;;7.73;100.00;101439.16;5218271;28;20029;-74
2023/02/22 00:52:18;;;;;;;33.72;24.60;;;;;;;7.77;100.00;101422.38;5222333;28;20036;-74
2023/02/22 00:54:49;;;;;;;37.50;26.00;;;;;;;7.77;100.00;101432.81;5226023;28;20463;-74
2023/02/22 00:57:21;;;;;;;39.78;27.40;;;;;;;7.74;100.00;101429.56;5216730;28;20379;-74
2023/02/22 00:59:52;;;;;;;39.17;26.67;;;;;;;7.72;100.00;101429.63;5229008;28;20158;-74
2023/02/22 01:02:24;;;;;;;37.15;25.83;;;;;;;7.73;100.00;101427.91;5219417;28;20496;-74
2023/02/22 01:04:55;;;;;;;36.85;25.85;;;;;;;7.72;100.00;101419.22;5228797;28;20402;-74
2023/02/22 01:07:26;;;;;;;37.65;27.33;;;;;;;7.67;100.00;101403.03;5223182;28;20365;-74
2023/02/22 01:09:58;;;;;;;38.15;26.52;;;;;;;7.67;100.00;101410.84;5224356;28;20750;-74
2023/02/22 01:12:29;;;;;;;39.22;27.58;;;;;;;7.64;100.00;101405.00;5217276;28;20510;-74
2023/02/22 01:15:02;;;;;;;36.38;26.55;;;;;;;7.59;100.00;101418.31;5224961;28;20026;-74
2023/02/22 01:17:33;;;;;;;33.50;25.25;;;;;;;7.48;100.00;101407.72;5223422;28;20455;-74
2023/02/22 01:20:14;;;;;;;37.05;25.40;;;;;;;7.38;100.00;101404.84;5222104;28;20109;-74
2023/02/22 01:22:47;;;;;;;34.45;24.90;;;;;;;7.39;100.00;101401.34;5227015;28;20045;-74
2023/02/22 01:25:21;;;;;;;34.47;24.15;;;;;;;7.47;100.00;101399.09;5220619;28;20499;-74
2023/02/22 01:27:54;;;;;;;36.70;24.88;;;;;;;7.38;100.00;101401.41;5217217;28;20053;-74
2023/02/22 01:30:32;;;;;;;37.08;26.13;;;;;;;7.50;100.00;101398.03;5226213;28;20025;-74
2023/02/22 01:33:05;;;;;;;36.28;24.17;;;;;;;7.50;100.00;101398.91;5222856;28;20407;-74
2023/02/22 01:35:40;;;;;;;36.28;25.15;;;;;;;7.48;100.00;101397.31;5223476;28;20039;-75
2023/02/22 01:38:13;;;;;;;36.63;25.85;;;;;;;7.36;100.00;101392.88;5227220;28;20085;-74
2023/02/22 01:40:48;;;;;;;37.17;25.13;;;;;;;7.45;100.00;101393.09;5227914;28;20273;-74
2023/02/22 01:43:21;;;;;;;36.25;25.33;;;;;;;7.52;100.00;101393.56;5219148;28;20230;-74
2023/02/22 01:45:53;;;;;;;;;;;;;;;8.05;100.00;101391.91;5223416;28;20740;-74
2023/02/22 01:48:33;;;;;;;44.58;27.52;;;;;;;7.55;100.00;101386.41;5224577;28;19975;-74
2023/02/22 01:51:10;;;;;;;51.13;27.88;;;;;;;7.44;100.00;101380.19;5224084;28;20452;-74
2023/02/22 01:53:55;;;;;;;44.97;25.73;;;;;;;7.46;100.00;101376.56;5224695;28;20387;-74
2023/02/22 01:56:31;;;;;;;48.58;29.23;;;;;;;7.35;100.00;101379.00;5226684;28;20032;-74
2023/02/22 01:59:07;;;;;;;45.60;29.08;;;;;;;7.33;100.00;101367.81;5224022;28;20168;-74
2023/02/22 02:01:41;;;;;;;53.97;28.73;;;;;;;7.32;100.00;101372.19;5221210;28;20034;-74
2023/02/22 02:04:24;;;;;;;118.82;28.73;;;;;;;7.30;100.00;101370.63;5218549;28;20117;-74
2023/02/22 02:06:59;;;;;;;45.00;28.45;;;;;;;7.34;100.00;101364.28;5218867;28;20041;-74
2023/02/22 02:09:38;;;;;;;48.88;29.08;;;;;;;7.42;100.00;101358.56;5224775;28;20052;-74
2023/02/22 02:12:13;;;;;;;52.63;27.98;;;;;;;7.38;100.00;101355.31;5225858;28;20447;-74
2023/02/22 02:14:44;;;;;;;57.95;29.90;;;;;;;7.31;100.00;101344.47;5225700;28;20103;-74
2023/02/22 02:17:18;;;;;;;66.00;29.98;;;;;;;7.35;100.00;101350.34;5224164;28;20030;-74
2023/02/22 02:20:00;;;;;;;84.20;30.35;;;;;;;7.42;100.00;101350.75;5221383;28;20092;-74
2023/02/22 02:22:53;;;;;;;109.32;29.23;;;;;;;7.57;100.00;101353.22;5220460;28;20033;-74
2023/02/22 02:25:46;;;;;;;105.13;29.95;;;;;;;7.61;100.00;101343.44;5225586;28;20455;-74
2023/02/22 02:28:40;;;;;;;64.55;29.52;;;;;;;7.68;100.00;101339.50;5222688;28;20238;-74
2023/02/22 02:31:28;;;;;;;79.53;28.85;;;;;;;7.39;100.00;101341.38;5222470;28;20057;-74
2023/02/22 02:34:20;;;;;;;62.42;27.63;;;;;;;7.61;100.00;101333.00;5221476;28;20136;-74
2023/02/22 02:37:21;;;;;;;96.72;27.27;;;;;;;7.49;100.00;101339.00;5223794;28;20264;-74
2023/02/22 02:40:10;;;;;;;52.80;25.17;;;;;;;7.41;100.00;101336.06;5203854;28;20053;-74
2023/02/22 02:42:48;;;;;;;90.30;27.60;;;;;;;7.23;100.00;101327.63;5221630;28;20238;-74
2023/02/22 02:45:28;;;;;;;75.22;27.30;;;;;;;7.33;100.00;101339.16;5220462;28;20033;-74
2023/02/22 02:48:01;;;;;;;105.75;26.98;;;;;;;7.18;100.00;101345.31;5221707;28;20105;-74
2023/02/22 02:50:40;;;;;;;121.93;28.33;;;;;;;7.24;100.00;101342.34;5224901;28;20029;-74
2023/02/22 02:53:16;;;;;;;111.57;27.35;;;;;;;7.16;100.00;101340.22;5225042;28;20021;-74
2023/02/22 02:55:47;;;;;;;133.50;28.20;;;;;;;7.09;100.00;101333.72;5224558;28;20048;-74
2023/02/22 02:58:22;;;;;;;65.63;26.10;;;;;;;7.21;100.00;101324.28;5221800;28;20415;-74
2023/02/22 03:00:57;;;;;;;83.72;28.63;;;;;;;7.24;100.00;101327.53;5206934;28;20039;-74
2023/02/22 03:03:41;;;;;;;95.93;26.90;;;;;;;7.24;100.00;101326.72;5201091;28;20037;-74
2023/02/22 03:06:21;;;;;;;;;;;;;;;7.84;100.00;101321.09;5225738;28;20037;-74
2023/02/22 03:09:05;;;;;;;83.20;24.35;;;;;;;7.32;100.00;101325.28;5221932;28;19917;-74
2023/02/22 03:12:13;;;;;;;118.00;27.52;;;;;;;7.22;100.00;101323.34;5223232;28;20053;-74
2023/02/22 03:15:06;;;;;;;90.38;26.63;;;;;;;7.18;100.00;101317.50;5178140;28;20037;-74
2023/02/22 03:17:48;;;;;;;83.88;24.65;;;;;;;7.16;100.00;101308.97;5218140;28;20370;-74
2023/02/22 03:20:38;;;;;;;69.93;24.95;;;;;;;7.26;100.00;101309.19;5218686;28;20037;-74
2023/02/22 03:23:19;;;;;;;75.05;23.45;;;;;;;7.15;100.00;101309.03;5218865;28;20037;-74
2023/02/22 03:25:55;;;;;;;65.53;22.85;;;;;;;7.13;100.00;101296.13;5221731;28;20025;-74
2023/02/22 03:28:28;;;;;;;108.00;24.10;;;;;;;7.04;100.00;101294.06;5222324;28;20502;-74
2023/02/22 03:31:06;;;;;;;71.15;23.77;;;;;;;7.05;100.00;101291.38;5224300;28;20258;-74
2023/02/22 03:33:44;;;;;;;121.85;24.38;;;;;;;7.09;100.00;101279.00;5227774;28;20029;-74
2023/02/22 03:36:29;;;;;;;74.20;24.88;;;;;;;7.15;100.00;101272.56;5226630;28;20426;-74
2023/02/22 03:39:03;;;;;;;50.63;21.52;;;;;;;6.92;100.00;101263.59;5226645;28;20038;-74
2023/02/22 03:41:37;;;;;;;49.85;21.73;;;;;;;6.99;100.00;101270.09;5225045;28;20028;-74
2023/02/22 03:44:17;;;;;;;50.20;22.50;;;;;;;7.05;100.00;101261.91;5223599;28;20026;-74
2023/02/22 03:46:50;;;;;;;54.13;21.20;;;;;;;6.96;100.00;101265.06;5231440;28;20080;-74
2023/02/22 03:49:39;;;;;;;46.40;21.23;;;;;;;7.20;100.00;101268.75;5225082;28;20380;-74
2023/02/22 03:52:11;;;;;;;46.95;21.77;;;;;;;6.98;100.00;101258.84;5221842;28;20045;-74
2023/02/22 03:54:43;;;;;;;64.73;21.27;;;;;;;6.97;100.00;101253.72;5227397;28;20025;-74
2023/02/22 03:57:36;;;;;;;54.88;20.65;;;;;;;7.24;100.00;101251.13;5229217;28;20658;-74
2023/02/22 04:00:13;;;;;;;52.10;21.20;;;;;;;7.03;100.00;101248.13;5225571;28;20025;-74
2023/02/22 04:02:44;;;;;;;55.88;21.17;;;;;;;6.88;100.00;101225.66;5229743;28;20040;-74
2023/02/22 04:05:16;;;;;;;79.10;21.60;;;;;;;6.88;100.00;101231.69;5222491;28;20026;-74
2023/02/22 04:07:48;;;;;;;41.83;21.70;;;;;;;6.94;100.00;101239.13;5227381;28;20033;-74
2023/02/22 04:10:20;;;;;;;61.17;20.75;;;;;;;6.88;100.00;101226.47;5224469;28;20086;-74
2023/02/22 04:12:51;;;;;;;52.97;22.77;;;;;;;6.90;100.00;101223.81;5221238;28;20026;-74
2023/02/22 04:15:23;;;;;;;49.78;21.73;;;;;;;6.95;100.00;101222.56;5224699;28;20395;-74
2023/02/22 04:17:54;;;;;;;55.08;21.98;;;;;;;6.93;100.00;101218.38;5222759;28;20017;-74
2023/02/22 04:20:26;;;;;;;42.70;22.45;;;;;;;6.95;100.00;101222.56;5227143;28;20104;-74
2023/02/22 04:22:57;;;;;;;46.25;22.80;;;;;;;6.94;100.00;101227.88;5228982;28;20025;-74
2023/02/22 04:25:28;;;;;;;53.20;22.45;;;;;;;6.92;100.00;101220.16;5223973;28;20034;-74
2023/02/22 04:27:59;;;;;;;41.65;23.63;;;;;;;6.94;100.00;101220.91;5224981;28;20055;-74
2023/02/22 04:30:31;;;;;;;78.88;25.52;;;;;;;6.89;100.00;101215.13;5229623;28;20048;-74
2023/02/22 04:33:02;;;;;;;67.63;24.05;;;;;;;6.86;100.00;101211.88;5224114;28;20109;-74
2023/02/22 04:35:33;;;;;;;55.65;24.98;;;;;;;6.90;100.00;101213.38;5227027;28;20030;-74
2023/02/22 04:38:05;;;;;;;64.88;24.52;;;;;;;6.89;100.00;101212.50;5224011;28;20037;-74
2023/02/22 04:40:36;;;;;;;57.25;24.20;;;;;;;6.94;100.00;101220.91;5221356;28;20014;-74
2023/02/22 04:43:08;;;;;;;53.63;24.52;;;;;;;6.92;100.00;101219.31;5220750;28;20092;-74
2023/02/22 04:45:39;;;;;;;66.00;25.02;;;;;;;6.89;100.00;101224.72;5218230;28;20125;-74
2023/02/22 04:48:11;;;;;;;64.68;25.83;;;;;;;6.91;100.00;101223.69;5219842;28;20091;-74
2023/02/22 04:50:42;;;;;;;49.70;25.67;;;;;;;6.89;100.00;101222.94;5231130;28;20053;-74
2023/02/22 04:53:13;;;;;;;47.88;23.88;;;;;;;6.96;100.00;101226.00;5219555;28;20033;-74
2023/02/22 04:55:44;;;;;;;50.47;24.30;;;;;;;6.81;100.00;101228.63;5223183;28;20026;-74
2023/02/22 04:58:16;;;;;;;46.33;23.65;;;;;;;6.79;100.00;101214.88;5225417;28;20034;-74
2023/02/22 05:00:47;;;;;;;76.35;24.83;;;;;;;6.82;100.00;101208.66;5202077;28;20022;-74
2023/02/22 05:03:18;;;;;;;55.42;24.88;;;;;;;6.75;100.00;101202.16;5225535;28;20033;-74
2023/02/22 05:05:51;;;;;;;55.28;23.90;;;;;;;6.81;100.00;101204.34;5222604;28;20029;-74
2023/02/22 05:08:22;;;;;;;47.37;26.30;;;;;;;6.88;100.00;101203.03;5225509;28;20033;-74
2023/02/22 05:10:53;;;;;;;48.67;23.92;;;;;;;6.91;100.00;101196.81;5224737;28;20030;-74
2023/02/22 05:13:25;;;;;;;54.85;23.33;;;;;;;6.87;100.00;101192.72;5219607;28;20022;-74
2023/02/22 05:15:56;;;;;;;35.50;23.10;;;;;;;6.88;100.00;101194.41;5227543;28;20029;-74
2023/02/22 05:18:28;;;;;;;44.47;23.80;;;;;;;6.95;100.00;101185.25;5218858;28;20411;-74
2023/02/22 05:20:59;;;;;;;48.65;23.13;;;;;;;6.92;100.00;101186.28;5222243;28;20553;-74
2023/02/22 05:23:31;;;;;;;37.47;23.25;;;;;;;6.94;100.00;101181.81;5224552;28;20063;-74
2023/02/22 05:26:02;;;;;;;34.45;24.00;;;;;;;6.93;100.00;101180.16;5221496;28;20531;-74
2023/02/22 05:28:34;;;;;;;42.35;23.50;;;;;;;6.89;100.00;101176.06;5227569;28;20402;-74
2023/02/22 05:31:06;;;;;;;47.05;24.27;;;;;;;6.90;100.00;101174.31;5231635;28;20036;-74
2023/02/22 05:33:38;;;;;;;42.83;24.70;;;;;;;6.88;100.00;101176.16;5220969;28;20087;-74
2023/02/22 05:36:09;;;;;;;37.53;23.90;;;;;;;6.98;100.00;101165.06;5218909;28;20037;-74
2023/02/22 05:38:42;;;;;;;35.72;23.00;;;;;;;6.98;100.00;101167.66;5228256;28;20034;-74
2023/02/22 05:41:14;;;;;;;38.75;23.58;;;;;;;6.95;100.00;101156.59;5224208;28;20035;-74
2023/02/22 05:43:46;;;;;;;37.55;23.33;;;;;;;7.02;100.00;101152.69;5220286;28;20385;-74
2023/02/22 05:46:17;;;;;;;40.67;21.98;;;;;;;6.91;100.00;101152.53;5222577;28;20061;-74
2023/02/22 05:48:49;;;;;;;37.17;22.50;;;;;;;6.96;100.00;101156.50;5223972;28;20465;-74
2023/02/22 05:51:20;;;;;;;34.83;21.90;;;;;;;6.93;100.00;101155.84;5226478;28;20040;-73
2023/02/22 05:53:51;;;;;;;36.05;23.83;;;;;;;6.92;100.00;101154.19;5220239;28;20390;-73
2023/02/22 05:56:24;;;;;;;31.63;22.17;;;;;;;6.92;100.00;101152.41;5223136;28;20364;-73
2023/02/22 05:58:57;;;;;;;33.85;22.42;;;;;;;6.93;100.00;101154.13;5218638;28;20030;-73
2023/02/22 06:01:28;;;;;;;32.75;22.92;;;;;;;6.91;100.00;101142.94;5224985;28;20120;-73
2023/02/22 06:03:59;;;;;;;34.22;23.48;;;;;;;6.87;100.00;101123.25;5220963;28;20108;-72
2023/02/22 06:06:31;;;;;;;37.38;24.15;;;;;;;6.92;100.00;101126.38;5204350;28;20026;-73
2023/02/22 06:09:02;;;;;;;37.00;24.05;;;;;;;6.93;100.00;101122.84;5220374;28;20153;-73
2023/02/22 06:11:33;;;;;;;35.00;23.40;;;;;;;6.95;100.00;101118.38;5206180;28;20273;-73
2023/02/22 06:14:06;;;;;;;36.28;23.52;;;;;;;6.90;100.00;101115.25;5224997;28;20607;-73
2023/02/22 06:16:37;;;;;;;30.65;21.65;;;;;;;6.84;100.00;101118.22;5200708;28;20067;-73
2023/02/22 06:19:08;;;;;;;33.15;22.38;;;;;;;6.87;100.00;101112.81;5218688;28;20030;-73
2023/02/22 06:21:40;;;;;;;34.50;22.88;;;;;;;6.81;100.00;101100.19;5223760;28;20108;-73
2023/02/22 06:24:12;;;;;;;33.90;23.73;;;;;;;6.89;100.00;101103.13;5207635;28;20037;-73
2023/02/22 06:26:43;;;;;;;32.17;22.08;;;;;;;6.83;100.00;101099.16;5220776;28;20030;-73
2023/02/22 06:29:14;;;;;;;32.55;22.02;;;;;;;6.84;100.00;101097.41;5217451;28;20014;-73
2023/02/22 06:31:46;;;;;;;32.35;22.33;;;;;;;6.85;100.00;101100.84;5217543;28;20034;-73
2023/02/22 06:34:18;;;;;;;32.35;22.83;;;;;;;6.87;100.00;101098.97;5205898;28;20030;-73
2023/02/22 06:36:49;;;;;;;33.47;23.27;;;;;;;6.82;100.00;101102.72;5224403;28;20040;-73
2023/02/22 06:39:20;;;;;;;32.17;22.67;;;;;;;6.87;100.00;101097.19;5215442;28;20046;-73
2023/02/22 06:41:54;;;;;;;33.58;21.95;;;;;;;6.84;100.00;101094.78;5220398;28;20073;-73
2023/02/22 06:44:25;;;;;;;33.45;22.15;;;;;;;6.84;100.00;101102.59;5221794;28;20053;-73
2023/02/22 06:46:58;;;;;;;34.17;22.38;;;;;;;6.87;100.00;101104.19;5226554;28;20057;-73
2023/02/22 06:49:29;;;;;;;33.83;23.08;;;;;;;6.84;100.00;101100.00;5223878;28;20385;-73
2023/02/22 06:52:04;;;;;;;36.22;24.75;;;;;;;6.87;100.00;101097.19;5220822;28;20039;-73
2023/02/22 06:54:37;;;;;;;33.50;23.75;;;;;;;6.87;100.00;101112.00;5213420;28;20117;-73
2023/02/22 06:57:09;;;;;;;34.28;22.88;;;;;;;6.89;100.00;101108.34;5194914;28;20065;-73
2023/02/22 06:59:41;;;;;;;33.75;22.58;;;;;;;6.92;100.00;101110.75;5197162;28;20025;-73
2023/02/22 07:02:13;;;;;;;34.35;24.15;;;;;;;6.92;100.00;101113.34;5195983;28;20049;-73
2023/02/22 07:04:44;;;;;;;34.25;22.88;;;;;;;6.94;100.00;101115.88;5206500;28;20034;-73
2023/02/22 07:07:16;;;;;;;35.80;23.77;;;;;;;6.94;100.00;101106.28;5201493;28;20506;-73
2023/02/22 07:09:47;;;;;;;37.28;23.35;;;;;;;6.95;100.00;101120.13;5197843;28;20040;-73
2023/02/22 07:12:18;;;;;;;32.50;22.77;;;;;;;6.93;100.00;101122.00;5198676;28;20030;-73
2023/02/22 07:14:55;;;;;;;37.00;24.02;;;;;;;7.03;100.00;101116.09;5218119;28;20029;-73
2023/02/22 07:17:26;;;;;;;32.15;22.70;;;;;;;6.93;100.00;101120.25;5214109;28;20394;-73
2023/02/22 07:19:57;;;;;;;32.08;22.00;;;;;;;6.98;100.00;101120.78;5219434;28;20034;-72
2023/02/22 07:22:29;;;;;;;32.30;22.77;;;;;;;7.01;100.00;101115.38;5212023;28;20104;-72
2023/02/22 07:25:00;;;;;;;32.58;22.60;;;;;;;7.08;100.00;101121.00;5223631;28;20032;-72
2023/02/22 07:27:32;;;;;;;33.17;22.40;;;;;;;7.03;100.00;101125.69;5219999;28;20030;-72
2023/02/22 07:30:14;;;;;;;34.50;23.80;;;;;;;7.14;100.00;101136.22;5220916;28;20449;-73
2023/02/22 07:32:45;;;;;;;33.50;22.60;;;;;;;7.09;100.00;101132.28;5213952;28;20149;-73
2023/02/22 07:35:32;;;;;;;32.80;23.27;;;;;;;7.19;100.00;101130.72;5218297;28;20121;-72
2023/02/22 07:38:07;;;;;;;33.53;23.60;;;;;;;7.27;100.00;101136.25;5218336;28;20049;-73
2023/02/22 07:40:40;;;;;;;32.08;22.20;;;;;;;7.17;100.00;101140.41;5218905;28;20111;-72
2023/02/22 07:43:19;;;;;;;30.23;22.08;;;;;;;7.30;100.00;101141.25;5223246;28;20026;-72
2023/02/22 07:45:53;;;;;;;33.50;22.52;;;;;;;7.20;100.00;101133.25;5216747;28;20115;-73
2023/02/22 07:48:26;;;;;;;35.15;24.00;;;;;;;7.27;100.00;101142.31;5220706;28;20667;-73
2023/02/22 07:50:58;;;;;;;32.72;22.85;;;;;;;7.26;100.00;101145.84;5215115;28;20029;-73
2023/02/22 07:53:32;;;;;;;31.10;21.48;;;;;;;7.31;100.00;101145.53;5213427;28;20075;-73
2023/02/22 07:56:04;;;;;;;32.40;22.23;;;;;;;7.36;100.00;101155.69;5219210;28;20030;-73
2023/02/22 07:58:35;;;;;;;35.17;23.63;;;;;;;7.38;100.00;101152.00;5219658;28;20040;-73
2023/02/22 08:01:07;;;;;;;32.80;21.60;;;;;;;7.41;100.00;101157.03;5217022;28;20038;-73
2023/02/22 08:03:38;;;;;;;33.80;22.95;;;;;;;7.44;100.00;101151.63;5216171;28;20040;-73
2023/02/22 08:06:10;;;;;;;31.27;22.38;;;;;;;7.48;100.00;101147.88;5217867;28;20506;-73
2023/02/22 08:08:41;;;;;;;34.47;22.95;;;;;;;7.49;100.00;101143.47;5227498;28;20383;-73
2023/02/22 08:11:13;;;;;;;30.77;22.27;;;;;;;7.49;100.00;101133.88;5215705;28;20033;-73
2023/02/22 08:13:44;;;;;;;36.28;22.38;;;;;;;7.55;100.00;101128.28;5219439;28;20518;-73
2023/02/22 08:16:15;;;;;;;29.92;21.90;;;;;;;7.54;100.00;101110.97;5230376;28;20033;-73
2023/02/22 08:18:47;;;;;;;31.30;21.13;;;;;;;7.62;100.00;101112.22;5222121;28;20057;-73
2023/02/22 08:21:18;;;;;;;31.70;21.65;;;;;;;7.71;100.00;101119.41;5221580;28;20045;-73
2023/02/22 08:23:53;;;;;;;28.88;20.58;;;;;;;7.73;100.00;101115.75;5228276;28;20048;-73
2023/02/22 08:26:24;;;;;;;28.23;19.63;;;;;;;7.74;100.00;101112.22;5222955;28;20029;-73
2023/02/22 08:28:55;;;;;;;28.25;20.48;;;;;;;7.82;100.00;101121.28;5222943;28;20041;-73
2023/02/22 08:31:27;;;;;;;27.77;20.58;;;;;;;7.85;100.00;101127.13;5223546;28;20033;-73
2023/02/22 08:33:59;;;;;;;28.60;20.10;;;;;;;7.87;100.00;101127.84;5220497;28;20102;-73
2023/02/22 08:36:33;;;;;;;28.95;21.08;;;;;;;7.98;100.00;101129.72;5222013;28;20038;-73
2023/02/22 08:39:04;;;;;;;;;;;;;;;8.61;100.00;101127.94;5223724;28;20046;-73
2023/02/22 08:41:35;;;;;;;29.93;20.33;;;;;;;8.04;100.00;101122.28;5224801;28;19932;-73
2023/02/22 08:44:07;;;;;;;26.70;20.00;;;;;;;8.02;100.00;101125.94;5221247;28;20125;-72
2023/02/22 08:46:38;;;;;;;27.85;20.77;;;;;;;8.04;100.00;101122.28;5215907;28;20052;-73
2023/02/22 08:49:09;;;;;;;28.40;21.00;;;;;;;8.09;100.00;101121.13;5220377;28;20559;-72
2023/02/22 08:51:41;;;;;;;26.63;20.38;;;;;;;8.14;100.00;101122.47;5222281;28;20037;-74
2023/02/22 08:54:12;;;;;;;28.30;21.08;;;;;;;8.15;100.00;101124.16;5217983;28;20491;-72
2023/02/22 08:56:43;;;;;;;30.13;21.65;;;;;;;8.22;100.00;101124.53;5219605;28;20041;-73
2023/02/22 08:59:16;;;;;;;28.20;21.42;;;;;;;8.26;100.00;101113.81;5220431;28;20028;-72
2023/02/22 09:01:47;;;;;;;30.48;20.60;;;;;;;8.28;100.00;101104.06;5220686;28;20043;-72
2023/02/22 09:04:18;;;;;;;28.77;21.05;;;;;;;8.31;100.00;101105.63;5220206;28;20034;-72
2023/02/22 09:06:50;;;;;;;26.92;20.67;;;;;;;8.27;100.00;101109.41;5215257;28;20061;-72
2023/02/22 09:09:22;;;;;;;26.02;19.88;;;;;;;8.37;100.00;101100.03;5218087;28;20033;-72
2023/02/22 09:11:53;;;;;;;27.58;20.55;;;;;;;8.43;100.00;101096.13;5220218;28;20049;-72
2023/02/22 09:14:24;;;;;;;28.42;21.13;;;;;;;8.51;100.00;101094.63;5223143;28;20348;-72
2023/02/22 09:16:56;;;;;;;26.70;19.90;;;;;;;8.48;100.00;101087.00;5223818;28;20029;-72
2023/02/22 09:19:27;;;;;;;26.50;20.45;;;;;;;8.52;100.00;101085.00;5214523;28;20033;-73
2023/02/22 09:21:59;;;;;;;25.73;19.80;;;;;;;8.55;100.00;101082.19;5219941;28;20031;-72
2023/02/22 09:24:30;;;;;;;27.17;20.58;;;;;;;8.61;100.00;101083.53;5220557;28;20025;-72
2023/02/22 09:27:03;;;;;;;24.88;19.35;;;;;;;8.67;100.00;101081.28;5221999;28;20498;-72
2023/02/22 09:29:34;;;;;;;24.83;18.95;;;;;;;8.75;100.00;101084.19;5220187;28;20060;-72
2023/02/22 09:32:05;;;;;;;24.73;19.40;;;;;;;8.85;100.00;101086.94;5215831;28;20026;-72
2023/02/22 09:34:37;;;;;;;24.65;18.80;;;;;;;8.94;100.00;101080.19;5219517;28;20040;-73
2023/02/22 09:37:08;;;;;;;24.83;19.35;;;;;;;8.99;100.00;101073.69;5221204;28;20026;-73
2023/02/22 09:39:40;;;;;;;23.17;18.48;;;;;;;8.98;100.00;101077.25;5218027;28;20381;-73
2023/02/22 09:42:21;;;;;;;21.50;17.50;;;;;;;9.17;100.00;101073.28;5218859;28;20040;-72
2023/02/22 09:45:02;;;;;;;22.58;17.67;;;;;;;9.27;100.00;101080.28;5216149;28;20437;-73
2023/02/22 09:47:53;;;;;;;23.48;18.40;;;;;;;9.38;100.00;101082.09;5221596;28;20044;-73
2023/02/22 09:50:30;;;;;;;23.20;17.55;;;;;;;9.39;100.00;101077.69;5223904;28;20033;-73
2023/02/22 09:53:06;;;;;;;23.83;17.80;;;;;;;9.37;100.00;101079.59;5219365;28;20034;-73
2023/02/22 09:55:42;;;;;;;20.13;16.67;;;;;;;9.44;100.00;101079.03;5224407;28;20079;-73
2023/02/22 09:58:51;;;;;;;20.40;15.88;;;;;;;9.74;100.00;101070.59;5221731;28;20119;-73
2023/02/22 10:01:46;;;;;;;23.10;17.50;;;;;;;9.90;100.00;101069.41;5218941;28;20076;-73
2023/02/22 10:04:23;;;;;;;18.67;15.48;;;;;;;9.75;100.00;101064.41;5221374;28;20022;-73
2023/02/22 10:07:04;;;;;;;17.08;14.35;;;;;;;9.85;100.00;101068.91;5218262;28;20030;-73
2023/02/22 10:09:41;;;;;;;18.60;14.05;;;;;;;10.05;100.00;101065.59;5225061;28;20044;-73
2023/02/22 10:12:29;;;;;;;18.58;14.73;;;;;;;10.30;100.00;101061.03;5218077;28;20040;-73
2023/02/22 10:15:25;;;;;;;17.48;13.30;;;;;;;10.46;100.00;101058.88;5222035;28;20033;-73
2023/02/22 10:18:18;;;;;;;16.83;12.93;;;;;;;10.56;100.00;101061.56;5216367;28;20029;-73
2023/02/22 10:20:56;;;;;;;15.57;13.05;;;;;;;10.54;100.00;101055.63;5220027;28;20104;-73
2023/02/22 10:24:15;;;;;;;16.25;13.23;;;;;;;10.77;100.00;101065.03;5222502;28;20033;-73
2023/02/22 10:26:46;;;;;;;16.02;12.85;;;;;;;10.62;100.00;101064.50;5216843;28;20029;-73
2023/02/22 10:29:39;;;;;;;15.55;12.98;;;;;;;10.85;100.00;101052.13;5214872;28;20501;-73
2023/02/22 10:32:16;;;;;;;14.00;11.70;;;;;;;10.81;100.00;101065.63;5214977;28;20033;-73
2023/02/22 10:34:52;;;;;;;16.65;12.15;;;;;;;10.69;100.00;101054.38;5197001;28;20658;-73
2023/02/22 10:37:31;;;;;;;14.48;12.10;;;;;;;10.92;100.00;101062.97;5216827;28;20406;-73
2023/02/22 10:40:13;;;;;;;17.00;12.75;;;;;;;11.08;100.00;101071.19;5219483;28;20175;-73
2023/02/22 10:42:44;;;;;;;14.95;12.35;;;;;;;11.04;100.00;101058.47;5219630;28;20029;-73
2023/02/22 10:45:23;;;;;;;14.85;11.95;;;;;;;11.19;100.00;101060.66;5221208;28;20079;-73
2023/02/22 10:47:57;;;;;;;13.82;11.35;;;;;;;11.24;100.00;101060.25;5214730;28;20112;-73
2023/02/22 10:50:30;;;;;;;13.88;11.52;;;;;;;11.22;100.00;101049.06;5215469;28;20403;-73
2023/02/22 10:53:02;;;;;;;15.15;11.60;;;;;;;11.33;100.00;101061.28;5223378;28;20468;-73
2023/02/22 10:55:34;;;;;;;15.23;11.45;;;;;;;11.34;100.00;101049.84;5214074;28;20655;-75
2023/02/22 10:58:07;;;;;;;13.52;10.48;;;;;;;11.48;100.00;101057.38;5215734;28;20026;-73
2023/02/22 11:00:38;;;;;;;11.98;10.52;;;;;;;11.59;100.00;101052.03;5213512;28;20475;-74
2023/02/22 11:03:22;;;;;;;15.93;10.98;;;;;;;11.85;100.00;101060.28;5217291;28;20032;-74
2023/02/22 11:05:53;;;;;;;12.60;11.23;;;;;;;11.74;100.00;101049.84;5222155;28;20415;-74
2023/02/22 11:08:31;;;;;;;12.70;10.75;;;;;;;11.97;100.00;101057.56;5219727;28;20037;-74
2023/02/22 11:11:28;;;;;;;14.45;11.23;;;;;;;12.13;100.00;101048.22;5220204;28;20022;-74
2023/02/22 11:14:01;;;;;;;13.75;11.23;;;;;;;11.95;100.00;101049.84;5194649;28;20022;-74
2023/02/22 11:16:37;;;;;;;12.68;11.25;;;;;;;12.04;100.00;101050.81;5213822;28;20041;-74
2023/02/22 11:19:21;;;;;;;13.65;10.52;;;;;;;12.20;100.00;101053.78;5215483;28;20040;-74
2023/02/22 11:22:02;;;;;;;14.63;11.75;;;;;;;12.16;100.00;101047.13;5215143;28;20123;-74
2023/02/22 11:24:49;;;;;;;15.00;11.02;;;;;;;12.17;100.00;101054.88;5214890;28;20025;-74
2023/02/22 11:27:37;;;;;;;12.90;11.40;;;;;;;12.13;100.00;101044.78;5216769;28;20057;-74
2023/02/22 11:30:23;;;;;;;12.80;11.38;;;;;;;12.31;100.00;101050.16;5219096;28;20029;-73
2023/02/22 11:33:01;;;;;;;11.98;10.52;;;;;;;12.27;100.00;101049.59;5216304;28;20121;-74
2023/02/22 11:35:39;;;;;;;14.15;11.23;;;;;;;12.34;100.00;101047.28;5222491;28;20022;-73
2023/02/22 11:38:14;;;;;;;16.27;11.38;;;;;;;12.32;100.00;101047.44;5219912;28;20129;-73
2023/02/22 11:41:10;;;;;;;12.88;10.88;;;;;;;12.53;100.00;101035.94;5220179;28;20032;-73
2023/02/22 11:43:43;;;;;;;15.02;11.02;;;;;;;12.34;100.00;101024.47;5214392;28;20037;-73
2023/02/22 11:46:27;;;;;;;12.18;10.13;;;;;;;12.47;100.00;101026.00;5216051;28;20543;-73